createdAt,value
2022-11-26T00:00:58.822Z,72.87
2022-11-26T00:03:34.989Z,73.27
2022-11-26T00:04:43.830Z,73.45
2022-11-26T00:07:13.484Z,73.88
2022-11-26T00:08:27.275Z,73.97
2022-11-26T00:09:37.018Z,73.49
2022-11-26T00:10:49.720Z,73.17
2022-11-26T00:13:27.855Z,73.21
2022-11-26T00:15:53.196Z,73.03
2022-11-26T00:17:04.253Z,73.13
2022-11-26T00:18:15.012Z,73.14
2022-11-26T00:19:24.051Z,72.82
2022-11-26T00:20:33.048Z,72.83
2022-11-26T00:21:43.628Z,73.67
2022-11-26T00:22:56.632Z,72.26
2022-11-26T00:25:30.770Z,72.55
2022-11-26T00:26:39.617Z,72.58
2022-11-26T00:27:49.604Z,72.89
2022-11-26T00:29:01.069Z,72.46
2022-11-26T00:30:25.479Z,72.77
2022-11-26T00:31:34.257Z,72.93
2022-11-26T00:32:44.514Z,72.45
2022-11-26T00:33:54.556Z,72.84
2022-11-26T00:36:27.132Z,73.33
2022-11-26T00:39:06.262Z,73.22
2022-11-26T00:41:40.625Z,72.70
2022-11-26T00:45:37.681Z,72.22
2022-11-26T00:46:50.163Z,72.64
2022-11-26T00:48:03.351Z,72.47
2022-11-26T00:49:12.114Z,73.03
2022-11-26T00:50:26.226Z,72.27
2022-11-26T00:52:54.882Z,72.54
2022-11-26T00:54:06.076Z,72.29
2022-11-26T00:56:50.186Z,72.85
2022-11-26T00:57:59.496Z,72.70
2022-11-26T01:00:50.534Z,72.49
2022-11-26T01:01:59.976Z,72.01
2022-11-26T01:03:09.476Z,72.24
2022-11-26T01:04:19.117Z,72.16
2022-11-26T01:05:31.984Z,72.33
2022-11-26T01:08:09.428Z,72.37
2022-11-26T01:09:21.486Z,72.58
2022-11-26T01:10:32.114Z,72.27
2022-11-26T01:11:40.995Z,72.75
2022-11-26T01:12:51.856Z,72.32
2022-11-26T01:14:00.910Z,71.50
2022-11-26T01:16:27.611Z,70.89
2022-11-26T01:17:37.157Z,71.37
2022-11-26T01:18:47.483Z,70.40
2022-11-26T01:19:55.980Z,70.92
2022-11-26T01:21:04.862Z,71.11
2022-11-26T01:23:34.246Z,69.59
2022-11-26T01:24:43.162Z,69.30
2022-11-26T01:25:53.870Z,69.38
2022-11-26T01:27:03.385Z,69.47
2022-11-26T01:29:30.259Z,68.64
2022-11-26T01:30:40.235Z,69.76
2022-11-26T01:31:49.263Z,69.98
2022-11-26T01:32:59.925Z,70.98
2022-11-26T01:34:11.235Z,70.75
2022-11-26T01:36:36.662Z,71.02
2022-11-26T01:37:45.542Z,71.25
2022-11-26T01:40:20.458Z,71.30
2022-11-26T01:41:47.312Z,70.88
2022-11-26T01:42:57.681Z,70.54
2022-11-26T01:44:07.843Z,69.91
2022-11-26T01:45:18.772Z,69.05
2022-11-26T01:47:47.127Z,69.78
2022-11-26T01:49:01.979Z,69.32
2022-11-26T01:50:25.398Z,69.33
2022-11-26T01:51:35.525Z,69.74
2022-11-26T01:52:54.604Z,70.11
2022-11-26T01:54:04.037Z,70.33
2022-11-26T01:55:16.083Z,69.96
2022-11-26T01:56:37.527Z,70.85
2022-11-26T01:57:47.712Z,71.05
2022-11-26T01:58:58.670Z,69.98
2022-11-26T02:00:08.384Z,70.44
2022-11-26T02:01:20.705Z,71.06
2022-11-26T02:02:29.712Z,70.95
2022-11-26T02:03:59.994Z,70.78
2022-11-26T02:05:15.370Z,70.81
2022-11-26T02:06:25.946Z,70.85
2022-11-26T02:07:35.602Z,70.29
2022-11-26T02:08:44.825Z,69.88
2022-11-26T02:09:53.461Z,68.95
2022-11-26T02:12:20.609Z,68.15
2022-11-26T02:13:29.545Z,68.77
2022-11-26T02:14:40.334Z,67.96
2022-11-26T02:15:51.190Z,68.65
2022-11-26T02:17:08.663Z,69.19
2022-11-26T02:18:17.927Z,70.11
2022-11-26T02:19:44.709Z,70.83
2022-11-26T02:20:55.832Z,71.36
2022-11-26T02:23:41.927Z,71.48
2022-11-26T02:24:52.475Z,71.48
2022-11-26T02:26:05.983Z,71.63
2022-11-26T02:27:33.853Z,71.81
2022-11-26T02:28:59.261Z,71.50
2022-11-26T02:30:12.392Z,71.09
2022-11-26T02:31:24.691Z,71.65
2022-11-26T02:32:44.302Z,71.28
2022-11-26T02:33:54.893Z,72.07
2022-11-26T02:36:35.043Z,72.59
2022-11-26T02:37:57.577Z,72.47
2022-11-26T02:39:14.396Z,71.96
2022-11-26T02:40:23.659Z,72.36
2022-11-26T02:41:34.338Z,72.48
2022-11-26T02:42:42.675Z,72.47
2022-11-26T02:43:51.492Z,72.16
2022-11-26T02:46:20.526Z,71.93
2022-11-26T02:47:29.774Z,72.25
2022-11-26T02:49:57.347Z,71.22
2022-11-26T02:52:26.966Z,71.06
2022-11-26T02:53:37.804Z,71.11
2022-11-26T02:54:50.112Z,71.46
2022-11-26T02:57:18.498Z,71.09
2022-11-26T02:58:29.192Z,71.10
2022-11-26T02:59:38.683Z,70.99
2022-11-26T03:00:49.140Z,70.84
2022-11-26T03:04:40.216Z,71.06
2022-11-26T03:05:53.447Z,70.07
2022-11-26T03:07:04.006Z,69.74
2022-11-26T03:08:18.353Z,70.10
2022-11-26T03:09:27.381Z,69.71
2022-11-26T03:10:36.655Z,69.63
2022-11-26T03:11:45.090Z,69.54
2022-11-26T03:12:54.923Z,69.71
2022-11-26T03:14:04.566Z,70.07
2022-11-26T03:15:13.145Z,70.35
2022-11-26T03:16:22.807Z,71.05
2022-11-26T03:17:33.527Z,71.34
2022-11-26T03:18:42.967Z,71.13
2022-11-26T03:19:51.765Z,71.23
2022-11-26T03:21:00.243Z,71.43
2022-11-26T03:22:08.717Z,71.37
2022-11-26T03:23:17.916Z,71.01
2022-11-26T03:24:27.759Z,71.22
2022-11-26T03:25:38.154Z,71.27
2022-11-26T03:26:47.543Z,70.90
2022-11-26T03:27:56.549Z,71.12
2022-11-26T03:29:05.591Z,71.28
2022-11-26T03:30:15.186Z,70.41
2022-11-26T03:31:23.534Z,70.65
2022-11-26T03:32:39.392Z,70.02
2022-11-26T03:33:48.739Z,69.95
2022-11-26T03:34:59.060Z,69.75
2022-11-26T03:36:07.933Z,70.49
2022-11-26T03:37:17.094Z,70.79
2022-11-26T03:40:01.937Z,70.35
2022-11-26T03:41:11.353Z,70.57
2022-11-26T03:42:20.878Z,70.62
2022-11-26T03:43:29.256Z,70.64
2022-11-26T03:44:39.000Z,69.91
2022-11-26T03:45:49.179Z,69.64
2022-11-26T03:46:57.665Z,68.88
2022-11-26T03:48:07.538Z,69.59
2022-11-26T03:49:16.967Z,70.18
2022-11-26T03:50:26.693Z,69.73
2022-11-26T03:51:37.164Z,70.13
2022-11-26T03:52:45.895Z,69.64
2022-11-26T03:53:55.310Z,69.76
2022-11-26T03:56:19.230Z,69.84
2022-11-26T03:57:28.244Z,70.17
2022-11-26T03:58:37.725Z,70.58
2022-11-26T03:59:46.063Z,71.51
2022-11-26T04:00:55.795Z,70.98
2022-11-26T04:02:05.063Z,71.58
2022-11-26T04:03:14.680Z,71.39
2022-11-26T04:04:23.055Z,71.35
2022-11-26T04:05:32.609Z,71.04
2022-11-26T04:06:41.409Z,71.25
2022-11-26T04:07:49.976Z,71.09
2022-11-26T04:08:59.484Z,70.81
2022-11-26T04:10:09.095Z,70.72
2022-11-26T04:11:17.559Z,70.62
2022-11-26T04:12:26.044Z,71.08
2022-11-26T04:13:34.931Z,71.20
2022-11-26T04:14:44.028Z,70.96
2022-11-26T04:15:52.470Z,69.66
2022-11-26T04:17:01.581Z,69.60
2022-11-26T04:18:10.004Z,69.64
2022-11-26T04:19:18.878Z,69.35
2022-11-26T04:20:28.596Z,69.85
2022-11-26T04:21:36.964Z,69.83
2022-11-26T04:22:45.402Z,70.02
2022-11-26T04:23:53.883Z,71.32
2022-11-26T04:25:05.158Z,71.04
2022-11-26T04:26:14.861Z,71.18
2022-11-26T04:27:23.655Z,71.27
2022-11-26T04:28:33.166Z,71.22
2022-11-26T04:29:42.004Z,70.50
2022-11-26T04:30:50.550Z,70.51
2022-11-26T04:32:01.304Z,70.88
2022-11-26T04:33:09.802Z,71.22
2022-11-26T04:34:18.133Z,70.65
2022-11-26T04:35:26.606Z,69.04
2022-11-26T04:36:35.995Z,68.55
2022-11-26T04:39:00.591Z,69.03
2022-11-26T04:40:10.041Z,69.38
2022-11-26T04:41:19.630Z,69.55
2022-11-26T04:42:28.937Z,69.50
2022-11-26T04:43:38.307Z,69.54
2022-11-26T04:44:47.324Z,70.26
2022-11-26T04:45:56.816Z,70.09
2022-11-26T04:47:06.539Z,71.08
2022-11-26T04:48:15.359Z,70.58
2022-11-26T04:49:23.844Z,70.26
2022-11-26T04:50:32.702Z,70.74
2022-11-26T04:51:41.340Z,71.16
2022-11-26T04:52:51.474Z,71.40
2022-11-26T04:54:03.136Z,70.09
2022-11-26T04:55:11.266Z,70.16
2022-11-26T04:56:19.905Z,70.08
2022-11-26T04:57:28.367Z,69.70
2022-11-26T04:58:36.929Z,69.23
2022-11-26T04:59:48.526Z,68.93
2022-11-26T05:00:57.460Z,68.38
2022-11-26T05:02:06.900Z,67.72
2022-11-26T05:03:16.407Z,67.95
2022-11-26T05:04:32.972Z,68.68
2022-11-26T05:05:42.531Z,69.06
2022-11-26T05:06:51.280Z,69.68
2022-11-26T05:08:00.578Z,69.54
2022-11-26T05:09:09.883Z,70.39
2022-11-26T05:10:19.852Z,70.85
2022-11-26T05:11:29.699Z,71.48
2022-11-26T05:12:38.457Z,71.66
2022-11-26T05:13:47.253Z,72.29
2022-11-26T05:16:10.987Z,72.19
2022-11-26T05:17:21.296Z,71.92
2022-11-26T05:18:30.446Z,71.27
2022-11-26T05:19:39.845Z,70.83
2022-11-26T05:22:04.346Z,70.24
2022-11-26T05:23:19.907Z,70.25
2022-11-26T05:24:29.150Z,69.86
2022-11-26T05:25:39.600Z,69.36
2022-11-26T05:26:52.431Z,68.99
2022-11-26T05:28:00.188Z,68.65
2022-11-26T05:29:08.981Z,68.20
2022-11-26T05:30:18.739Z,68.20
2022-11-26T05:31:28.451Z,68.50
2022-11-26T05:32:38.005Z,69.24
2022-11-26T05:33:47.419Z,69.15
2022-11-26T05:36:34.102Z,69.61
2022-11-26T05:37:43.032Z,69.54
2022-11-26T05:38:52.131Z,69.82
2022-11-26T05:40:00.360Z,70.24
2022-11-26T05:41:09.185Z,70.63
2022-11-26T05:42:20.095Z,70.91
2022-11-26T05:43:30.686Z,70.50
2022-11-26T05:44:39.406Z,70.68
2022-11-26T05:45:48.192Z,71.05
2022-11-26T05:46:57.837Z,70.59
2022-11-26T05:48:06.659Z,70.12
2022-11-26T05:49:16.791Z,69.94
2022-11-26T05:50:25.577Z,69.80
2022-11-26T05:51:35.541Z,69.50
2022-11-26T05:52:44.116Z,69.14
2022-11-26T05:53:52.864Z,68.64
2022-11-26T05:55:02.089Z,69.01
2022-11-26T05:56:12.326Z,68.82
2022-11-26T05:57:21.767Z,69.25
2022-11-26T05:58:30.566Z,69.21
2022-11-26T05:59:40.054Z,69.38
2022-11-26T06:00:49.561Z,70.02
2022-11-26T06:01:58.362Z,70.09
2022-11-26T06:03:09.693Z,70.21
2022-11-26T06:04:18.485Z,70.51
2022-11-26T06:05:27.054Z,70.34
2022-11-26T06:07:52.222Z,70.53
2022-11-26T06:09:02.647Z,70.28
2022-11-26T06:10:13.800Z,69.85
2022-11-26T06:12:37.011Z,69.08
2022-11-26T06:13:45.819Z,68.82
2022-11-26T06:14:54.862Z,68.85
2022-11-26T06:16:03.922Z,68.80
2022-11-26T06:17:15.452Z,69.02
2022-11-26T06:18:25.263Z,69.23
2022-11-26T06:19:34.305Z,69.41
2022-11-26T06:20:45.462Z,69.78
2022-11-26T06:21:54.269Z,70.40
2022-11-26T06:23:04.305Z,70.43
2022-11-26T06:24:12.784Z,69.76
2022-11-26T06:25:22.032Z,70.40
2022-11-26T06:26:31.801Z,70.38
2022-11-26T06:27:41.701Z,70.63
2022-11-26T06:28:50.541Z,70.25
2022-11-26T06:30:01.555Z,70.32
2022-11-26T06:31:10.516Z,70.66
2022-11-26T06:32:19.015Z,70.43
2022-11-26T06:33:27.925Z,70.34
2022-11-26T06:35:51.007Z,70.75
2022-11-26T06:36:59.780Z,70.35
2022-11-26T06:39:24.069Z,70.17
2022-11-26T06:40:33.492Z,69.34
2022-11-26T06:41:41.992Z,69.82
2022-11-26T06:42:51.943Z,69.26
2022-11-26T06:44:02.682Z,68.98
2022-11-26T06:45:12.426Z,69.07
2022-11-26T06:46:21.243Z,68.96
2022-11-26T06:47:29.662Z,69.83
2022-11-26T06:48:38.827Z,68.44
2022-11-26T06:49:47.256Z,68.27
2022-11-26T06:50:57.233Z,69.29
2022-11-26T06:52:06.532Z,69.81
2022-11-26T06:53:14.891Z,70.41
2022-11-26T06:54:25.561Z,70.21
2022-11-26T06:55:35.250Z,70.47
2022-11-26T06:56:44.143Z,70.56
2022-11-26T06:57:53.179Z,70.65
2022-11-26T06:59:02.693Z,70.44
2022-11-26T07:00:12.600Z,70.09
2022-11-26T07:01:25.881Z,70.28
2022-11-26T07:02:35.247Z,70.14
2022-11-26T07:03:46.124Z,69.51
2022-11-26T07:04:55.166Z,68.99
2022-11-26T07:06:06.020Z,68.79
2022-11-26T07:07:15.733Z,68.67
2022-11-26T07:08:24.125Z,68.98
2022-11-26T07:09:32.996Z,68.56
2022-11-26T07:10:46.090Z,68.49
2022-11-26T07:11:53.978Z,69.40
2022-11-26T07:13:02.421Z,69.48
2022-11-26T07:14:11.916Z,68.91
2022-11-26T07:15:21.421Z,69.33
2022-11-26T07:16:30.004Z,70.28
2022-11-26T07:17:40.552Z,70.51
2022-11-26T07:18:50.446Z,70.27
2022-11-26T07:21:13.958Z,70.81
2022-11-26T07:22:22.393Z,70.44
2022-11-26T07:23:31.126Z,70.88
2022-11-26T07:24:40.596Z,70.04
2022-11-26T07:25:50.387Z,70.13
2022-11-26T07:27:00.912Z,69.97
2022-11-26T07:28:09.309Z,70.04
2022-11-26T07:29:17.734Z,69.95
2022-11-26T07:30:28.281Z,69.65
2022-11-26T07:31:38.769Z,68.86
2022-11-26T07:32:47.759Z,67.47
2022-11-26T07:33:59.731Z,68.09
2022-11-26T07:35:09.387Z,69.38
2022-11-26T07:36:20.394Z,69.72
2022-11-26T07:37:29.988Z,69.32
2022-11-26T07:38:39.689Z,69.47
2022-11-26T07:39:50.128Z,68.31
2022-11-26T07:41:10.704Z,68.84
2022-11-26T07:42:19.449Z,69.33
2022-11-26T07:43:28.882Z,70.07
2022-11-26T07:45:52.306Z,71.08
2022-11-26T07:47:02.266Z,70.75
2022-11-26T07:49:45.365Z,70.66
2022-11-26T07:50:55.773Z,70.43
2022-11-26T07:52:05.396Z,69.87
2022-11-26T07:53:16.232Z,69.54
2022-11-26T07:54:25.685Z,69.85
2022-11-26T07:55:34.030Z,69.93
2022-11-26T07:56:42.861Z,69.31
2022-11-26T07:57:51.274Z,69.60
2022-11-26T07:59:01.396Z,70.55
2022-11-26T08:00:10.917Z,71.15
2022-11-26T08:01:24.821Z,71.54
2022-11-26T08:02:33.265Z,71.38
2022-11-26T08:03:43.280Z,71.04
2022-11-26T08:04:52.110Z,71.00
2022-11-26T08:06:01.097Z,70.74
2022-11-26T08:07:10.003Z,70.67
2022-11-26T08:08:19.083Z,70.80
2022-11-26T08:09:28.523Z,70.53
2022-11-26T08:10:37.470Z,70.11
2022-11-26T08:11:46.322Z,69.38
2022-11-26T08:12:54.711Z,69.00
2022-11-26T08:15:24.160Z,68.61
2022-11-26T08:16:33.263Z,68.62
2022-11-26T08:17:42.826Z,68.52
2022-11-26T08:18:55.481Z,68.65
2022-11-26T08:21:20.921Z,69.44
2022-11-26T08:22:30.987Z,69.36
2022-11-26T08:23:39.487Z,69.50
2022-11-26T08:24:50.276Z,69.35
2022-11-26T08:27:11.993Z,69.82
2022-11-26T08:28:20.848Z,70.51
2022-11-26T08:30:44.469Z,70.91
2022-11-26T08:31:53.503Z,71.30
2022-11-26T08:33:02.196Z,70.72
2022-11-26T08:34:14.608Z,71.02
2022-11-26T08:35:38.673Z,70.78
2022-11-26T08:37:49.076Z,69.75
2022-11-26T08:38:59.215Z,69.86
2022-11-26T08:40:09.123Z,69.26
2022-11-26T08:41:18.477Z,68.86
2022-11-26T08:44:58.407Z,68.37
2022-11-26T08:47:22.119Z,69.96
2022-11-26T08:48:33.132Z,70.60
2022-11-26T08:49:41.535Z,70.85
2022-11-26T08:50:50.931Z,70.59
2022-11-26T08:52:00.655Z,70.68
2022-11-26T08:53:09.801Z,71.10
2022-11-26T08:54:19.541Z,70.99
2022-11-26T08:55:53.379Z,70.93
2022-11-26T08:56:40.290Z,70.92
2022-11-26T08:57:49.020Z,70.02
2022-11-26T09:00:14.364Z,68.52
2022-11-26T09:01:29.191Z,68.18
2022-11-26T09:03:53.957Z,68.97
2022-11-26T09:05:03.576Z,69.42
2022-11-26T09:07:27.803Z,69.60
2022-11-26T09:08:39.250Z,69.65
2022-11-26T09:09:48.169Z,69.77
2022-11-26T09:10:58.379Z,69.74
2022-11-26T09:13:22.502Z,70.67
2022-11-26T09:14:33.291Z,71.39
2022-11-26T09:15:42.273Z,71.43
2022-11-26T09:16:52.618Z,71.00
2022-11-26T09:18:03.645Z,71.02
2022-11-26T09:19:13.280Z,71.15
2022-11-26T09:20:21.958Z,71.12
2022-11-26T09:21:31.638Z,71.14
2022-11-26T09:22:40.062Z,70.78
2022-11-26T09:23:49.074Z,70.50
2022-11-26T09:24:58.024Z,70.15
2022-11-26T09:26:06.366Z,69.98
2022-11-26T09:27:15.275Z,69.47
2022-11-26T09:28:23.606Z,68.73
2022-11-26T09:29:32.110Z,69.07
2022-11-26T09:30:40.986Z,68.99
2022-11-26T09:32:21.547Z,69.42
2022-11-26T09:34:16.346Z,69.85
2022-11-26T09:36:43.752Z,69.71
2022-11-26T09:37:52.698Z,69.80
2022-11-26T09:39:01.145Z,70.44
2022-11-26T09:40:11.820Z,70.43
2022-11-26T09:41:33.124Z,70.55
2022-11-26T09:44:03.699Z,70.93
2022-11-26T09:46:40.804Z,70.59
2022-11-26T09:47:42.866Z,70.71
2022-11-26T09:48:54.203Z,70.39
2022-11-26T09:50:07.956Z,70.12
2022-11-26T09:51:19.267Z,69.89
2022-11-26T09:52:33.469Z,69.36
2022-11-26T09:55:03.301Z,68.66
2022-11-26T09:56:14.684Z,68.81
2022-11-26T09:57:25.858Z,69.22
2022-11-26T09:58:38.320Z,68.84
2022-11-26T09:59:49.712Z,69.05
2022-11-26T10:01:00.905Z,68.91
2022-11-26T10:02:11.960Z,69.94
2022-11-26T10:03:22.989Z,70.07
2022-11-26T10:04:33.482Z,70.22
2022-11-26T10:07:06.754Z,70.96
2022-11-26T10:09:47.197Z,69.94
2022-11-26T10:12:38.233Z,69.69
2022-11-26T10:14:00.036Z,69.56
2022-11-26T10:15:11.384Z,69.95
2022-11-26T10:17:45.159Z,70.77
2022-11-26T10:18:55.461Z,70.93
2022-11-26T10:20:23.820Z,70.96
2022-11-26T10:23:07.753Z,70.77
2022-11-26T10:27:17.848Z,70.13
2022-11-26T10:28:28.100Z,69.92
2022-11-26T10:29:39.432Z,68.12
2022-11-26T10:32:17.230Z,68.79
2022-11-26T10:33:28.498Z,68.96
2022-11-26T10:36:11.115Z,69.28
2022-11-26T10:37:21.148Z,69.00
2022-11-26T10:38:29.708Z,69.87
2022-11-26T10:39:38.053Z,70.32
2022-11-26T10:42:04.298Z,69.55
2022-11-26T10:44:31.350Z,71.22
2022-11-26T10:45:41.569Z,70.66
2022-11-26T10:46:50.574Z,71.12
2022-11-26T10:49:32.462Z,70.58
2022-11-26T10:52:23.956Z,70.51
2022-11-26T10:55:12.024Z,69.30
2022-11-26T10:56:22.150Z,69.68
2022-11-26T10:58:48.423Z,68.41
2022-11-26T10:59:57.781Z,68.23
2022-11-26T11:01:06.795Z,69.16
2022-11-26T11:02:17.287Z,69.64
2022-11-26T11:04:56.217Z,70.08
2022-11-26T11:06:21.662Z,70.33
2022-11-26T11:07:37.477Z,71.15
2022-11-26T11:08:47.471Z,70.92
2022-11-26T11:10:06.952Z,71.11
2022-11-26T11:11:21.918Z,70.71
2022-11-26T11:13:48.016Z,70.86
2022-11-26T11:14:59.889Z,70.36
2022-11-26T11:16:09.067Z,70.15
2022-11-26T11:19:00.113Z,69.59
2022-11-26T11:21:35.146Z,68.88
2022-11-26T11:24:10.917Z,68.65
2022-11-26T20:15:26.214Z,89.12
2022-11-26T20:16:35.226Z,88.76
2022-11-26T20:19:06.272Z,87.16
2022-11-26T20:20:15.492Z,86.60
2022-11-26T20:21:30.143Z,85.96
2022-11-26T20:22:39.071Z,85.18
2022-11-26T20:23:50.213Z,82.59
2022-11-26T20:26:24.780Z,81.21
2022-11-26T20:27:33.343Z,80.50
2022-11-26T20:28:43.088Z,80.86
2022-11-26T20:29:52.142Z,80.53
2022-11-26T20:32:19.439Z,79.65
2022-11-26T20:33:28.758Z,78.75
2022-11-26T20:34:38.828Z,78.56
2022-11-26T20:35:48.461Z,78.07
2022-11-26T20:38:12.897Z,77.13
2022-11-26T20:39:24.256Z,77.27
2022-11-26T20:41:50.480Z,76.20
2022-11-26T20:44:15.288Z,75.32
2022-11-26T20:45:23.877Z,74.16
2022-11-26T20:46:32.813Z,74.49
2022-11-26T20:47:42.234Z,74.22
2022-11-26T20:48:52.666Z,74.62
2022-11-26T20:50:01.390Z,72.97
2022-11-26T20:51:14.089Z,72.72
2022-11-26T20:52:23.677Z,72.76
2022-11-26T20:54:53.876Z,72.52
2022-11-26T20:56:02.523Z,72.43
2022-11-26T20:57:11.196Z,72.16
2022-11-26T20:58:20.604Z,71.85
2022-11-26T20:59:29.493Z,72.14
2022-11-26T21:00:41.144Z,71.93
2022-11-26T21:03:06.719Z,71.72
2022-11-26T21:05:33.544Z,70.05
2022-11-26T21:06:43.643Z,70.27
2022-11-26T21:07:53.338Z,70.16
2022-11-26T21:10:22.619Z,70.19
2022-11-26T21:11:31.475Z,70.05
2022-11-26T21:13:58.436Z,70.10
2022-11-26T21:16:24.718Z,69.58
2022-11-26T21:17:33.486Z,68.97
2022-11-26T21:19:58.944Z,69.23
2022-11-26T21:21:16.090Z,69.81
2022-11-26T21:22:24.928Z,69.49
2022-11-26T21:23:35.121Z,70.34
2022-11-26T21:26:02.416Z,71.32
2022-11-26T21:27:11.217Z,71.90
2022-11-26T21:29:35.694Z,71.58
2022-11-26T21:30:44.633Z,71.47
2022-11-26T21:33:11.071Z,71.56
2022-11-26T21:35:34.569Z,71.22
2022-11-26T21:37:59.655Z,71.03
2022-11-26T21:40:24.703Z,70.11
2022-11-26T21:41:34.772Z,70.73
2022-11-26T21:42:44.507Z,70.23
2022-11-26T21:45:11.195Z,69.40
2022-11-26T21:47:38.816Z,69.39
2022-11-26T21:48:48.956Z,70.04
2022-11-26T21:51:15.788Z,69.90
2022-11-26T21:52:26.139Z,70.17
2022-11-26T21:54:50.693Z,69.78
2022-11-26T21:56:12.236Z,70.05
2022-11-26T21:57:23.008Z,69.97
2022-11-26T21:59:48.664Z,69.88
2022-11-26T22:02:13.820Z,70.91
2022-11-26T22:03:23.165Z,71.24
2022-11-26T22:04:33.790Z,71.03
2022-11-26T22:05:43.491Z,71.14
2022-11-26T22:08:13.666Z,71.88
2022-11-26T22:09:22.832Z,71.52
2022-11-26T22:11:46.667Z,71.37
2022-11-26T22:14:14.927Z,70.59
2022-11-26T22:15:24.037Z,70.98
2022-11-26T22:17:48.956Z,70.82
2022-11-26T22:18:59.817Z,70.42
